Latest Weather Observations for St George

IDQ60801

Issued at 5:32 pm EST Friday 27 February 2015 (issued every 30 minutes, with the page automatically refreshed every 10 minutes)

About weather observations | Map of weather stations | Latest weather observations for QLD | Other Formats
Station Details ID: 043109 Name: ST GEORGE AIRPORT Lat: -28.05 Lon: 148.59 Height: 198.5 m
Data from the previous 72 hours. | See also: Recent months at St George
Date/Time
EST
Temp
°C
App
Temp
°C
Dew
Point
Rel
Hum
%
Delta-T
°C
Wind Press
QNH
hPa
Press
MSL
hPa
Rain
since 9 am
mm
Dir
 
Spd
km/h
Gust
km/h
Spd
kts
Gust
kts
27/05:30pm 36.7 33.7 7.7 17 16.5 ESE 13 19 7 10 1003.1 - 0.0
27/05:00pm 37.6 34.5 5.6 14 17.7 SSW 11 24 6 13 1002.7 - 0.0
27/04:30pm 37.3 33.6 4.3 13 17.8 SE 13 24 7 13 1002.6 - 0.0
27/04:00pm 37.3 34.6 7.3 16 17.0 S 11 19 6 10 1002.6 - 0.0
27/03:30pm 37.3 34.4 6.3 15 17.3 SW 11 22 6 12 1002.8 - 0.0
27/03:00pm 37.2 34.7 8.1 17 16.7 S 11 22 6 12 1003.1 1001.8 0.0
27/02:30pm 37.1 35.0 9.6 19 16.1 SW 11 20 6 11 1003.5 - 0.0
27/02:00pm 36.2 32.6 10.4 21 15.2 SSW 20 28 11 15 1004.0 - 0.0
27/01:30pm 36.4 34.3 9.8 20 15.6 WSW 11 20 6 11 1004.3 - 0.0
27/01:00pm 35.4 33.7 11.1 23 14.4 SSE 11 20 6 11 1004.8 - 0.0
27/12:30pm 34.8 34.0 14.1 28 12.8 SE 11 19 6 10 1005.3 - 0.0
27/12:00pm 33.7 33.1 14.7 32 11.8 N 11 19 6 10 1005.6 1004.4 0.0
27/11:30am 32.5 31.3 15.1 35 10.8 N 15 28 8 15 1006.3 - 0.0
27/11:00am 32.4 31.8 16.7 39 10.0 NNE 15 24 8 13 1006.7 - 0.0
27/10:30am 31.5 30.7 17.0 41 9.3 NNE 17 24 9 13 1007.1 - 0.0
27/10:00am 30.2 28.9 16.9 44 8.4 N 19 28 10 15 1007.2 - 0.0
27/09:30am 29.5 28.4 17.3 47 7.8 N 19 30 10 16 1007.2 - 0.0
27/09:00am 29.1 28.1 17.6 50 7.4 N 19 24 10 13 1007.3 1006.0 0.0
27/08:30am 28.0 26.5 17.8 54 6.5 N 22 32 12 17 1007.2 - 0.0
27/08:00am 27.1 25.9 17.6 56 6.0 NNE 20 33 11 18 1007.1 - 0.0
27/07:30am 26.7 25.8 18.3 60 5.4 NNE 20 30 11 16 1006.9 - 0.0
27/07:00am 25.7 25.3 18.1 63 4.8 NE 17 24 9 13 1006.7 - 0.0
27/06:30am 24.6 26.1 18.1 67 4.1 NE 7 13 4 7 1006.2 - 0.0
27/06:00am 24.3 25.0 18.0 68 4.0 NNE 11 15 6 8 1005.6 1004.4 0.0
27/05:30am 24.3 25.4 18.0 68 4.0 N 9 11 5 6 1005.0 - 0.0
27/05:00am 24.4 25.1 17.9 67 4.1 N 11 17 6 9 1004.6 - 0.0
27/04:30am 24.6 24.1 17.8 66 4.3 N 17 22 9 12 1004.3 - 0.0
27/04:00am 24.9 24.3 17.6 64 4.6 NNE 17 24 9 13 1004.2 - 0.0
27/03:30am 25.1 25.3 17.6 63 4.7 NNE 13 19 7 10 1004.2 - 0.0
27/03:00am 25.1 25.7 17.8 64 4.6 NNE 11 15 6 8 1004.1 1002.9 0.0
27/02:30am 25.3 25.9 17.7 62 4.8 NNE 11 15 6 8 1004.2 - 0.0
27/02:00am 25.8 26.3 17.4 59 5.3 NE 11 19 6 10 1004.5 - 0.0
27/01:30am 26.2 26.9 17.0 57 5.8 NE 9 13 5 7 1004.5 - 0.0
27/01:00am 26.7 27.0 16.9 55 6.1 NE 11 17 6 9 1004.6 - 0.0
27/12:30am 27.4 27.6 15.7 48 7.2 E 9 15 5 8 1004.7 - 0.0
27/12:00am 28.1 27.4 15.4 46 7.8 N 13 17 7 9 1004.6 1003.4 0.0
 
Date/Time
EST
Temp
°C
App
Temp
°C
Dew
Point
Rel
Hum
%
Delta-T
°C
Wind Press
QNH
hPa
Press
MSL
hPa
Rain
since 9 am
mm
Dir
 
Spd
km/h
Gust
km/h
Spd
kts
Gust
kts
26/11:30pm 28.9 27.4 15.4 44 8.3 NNW 17 22 9 12 1004.7 - 0.0
26/11:00pm 29.5 27.3 14.5 40 9.2 NNW 19 24 10 13 1004.8 - 0.0
26/10:30pm 30.5 28.2 12.9 34 10.5 NNW 17 24 9 13 1004.8 - 0.0
26/10:00pm 30.1 29.6 15.8 42 8.9 N 13 17 7 9 1004.7 - 0.0
26/09:30pm 29.9 29.4 16.0 43 8.7 ESE 13 17 7 9 1004.8 - 0.0
26/09:00pm 31.0 29.3 14.6 37 10.1 SSE 17 24 9 13 1004.8 1003.6 0.0
26/08:30pm 32.3 31.6 12.0 29 12.1 N 7 11 4 6 1004.2 - 0.0
26/08:00pm 32.0 31.6 12.3 30 11.7 NE 6 7 3 4 1003.8 - 0.0
26/07:30pm 32.6 31.6 13.3 31 11.7 NE 11 20 6 11 1003.5 - 0.0
26/07:00pm 31.8 31.3 14.9 36 10.5 E 11 17 6 9 1003.2 - 0.0
26/06:30pm 34.6 33.4 12.9 27 13.2 E 11 17 6 9 1002.8 - 0.0
26/06:00pm 35.0 33.3 12.6 26 13.6 ESE 13 17 7 9 1002.6 1001.3 0.0
26/05:30pm 36.5 33.5 9.2 19 15.8 WNW 15 24 8 13 1002.3 - 0.0
26/05:00pm 37.6 35.6 10.0 19 16.3 WSW 11 26 6 14 1002.0 - 0.0
26/04:30pm 37.6 34.0 10.0 19 16.3 W 19 28 10 15 1002.3 - 0.0
26/04:00pm 37.0 32.7 7.9 17 16.6 W 20 32 11 17 1002.6 - 0.0
26/03:30pm 37.9 33.0 6.8 15 17.5 W 22 32 12 17 1002.8 - 0.0
26/03:00pm 36.8 35.1 13.5 24 14.4 NW 15 20 8 11 1003.3 1002.0 0.0
26/02:30pm 37.6 34.2 13.6 24 14.9 W 24 32 13 17 1003.6 - 0.0
26/02:00pm 36.2 34.3 14.2 26 13.7 NW 17 28 9 15 1004.5 - 0.0
26/01:30pm 35.0 33.3 14.8 29 12.6 NW 17 35 9 19 1005.2 - 0.0
26/01:00pm 35.1 33.3 15.9 31 12.2 N 20 28 11 15 1005.9 - 0.0
26/12:30pm 34.3 32.8 15.2 31 12.0 NW 17 26 9 14 1006.5 - 0.0
26/12:00pm 32.9 31.2 15.8 35 10.8 NNW 19 32 10 17 1007.1 1005.8 0.0
26/11:30am 33.2 31.4 16.1 35 10.8 NNW 20 30 11 16 1007.6 - 0.0
26/11:00am 32.2 30.4 16.1 38 10.2 N 20 32 11 17 1008.0 - 0.0
26/10:30am 31.1 28.1 15.9 40 9.5 NNW 26 37 14 20 1008.4 - 0.0
26/10:00am 30.3 27.7 16.0 42 9.0 N 24 39 13 21 1008.7 - 0.0
26/09:30am 29.6 27.1 16.1 44 8.4 N 24 37 13 20 1009.0 - 0.0
26/09:00am 28.5 25.1 15.8 46 7.9 N 28 37 15 20 1009.0 1007.8 0.0
26/08:30am 27.6 24.6 15.9 49 7.2 N 26 39 14 21 1009.0 - 0.0
26/08:00am 26.9 23.8 16.5 53 6.5 N 28 41 15 22 1009.1 - 0.0
26/07:30am 25.8 23.7 17.2 59 5.4 N 24 41 13 22 1009.1 - 0.0
26/07:00am 25.2 23.3 17.7 63 4.7 N 24 30 13 16 1009.0 - 0.0
26/06:30am 25.0 24.1 17.7 64 4.6 N 19 30 10 16 1008.9 - 0.0
26/06:00am 24.9 23.7 17.6 64 4.6 N 20 30 11 16 1008.5 1007.3 0.0
26/05:30am 25.3 24.2 17.2 61 5.1 NNE 19 33 10 18 1008.3 - 0.0
26/05:00am 25.8 24.5 17.2 59 5.4 NNE 20 32 11 17 1008.1 - 0.0
26/04:30am 26.0 25.0 16.5 55 5.9 NNE 17 26 9 14 1007.7 - 0.0
26/04:00am 26.4 25.5 15.8 52 6.5 NNE 15 20 8 11 1007.5 - 0.0
26/03:30am 26.8 25.8 15.5 50 6.9 NE 15 24 8 13 1007.3 - 0.0
26/03:00am 27.3 25.5 15.6 48 7.2 NNE 19 32 10 17 1007.1 1005.8 0.0
26/02:30am 26.8 26.3 14.9 48 7.2 NE 11 19 6 10 1007.0 - 0.0
26/02:00am 26.3 25.6 14.4 48 7.2 NNE 11 15 6 8 1006.8 - 0.0
26/01:30am 26.2 27.2 14.3 48 7.2 NE 2 7 1 4 1007.2 - 0.0
26/01:00am 25.9 25.9 15.3 52 6.5 ENE 9 11 5 6 1007.6 - 0.0
26/12:30am 26.1 26.9 16.4 55 6.0 NE 7 9 4 5 1007.7 - 0.0
26/12:00am 26.3 27.5 15.0 49 6.9 NNW 2 11 1 6 1007.6 1006.3 0.0
 
Date/Time
EST
Temp
°C
App
Temp
°C
Dew
Point
Rel
Hum
%
Delta-T
°C
Wind Press
QNH
hPa
Press
MSL
hPa
Rain
since 9 am
mm
Dir
 
Spd
km/h
Gust
km/h
Spd
kts
Gust
kts
25/11:30pm 27.8 27.9 15.5 47 7.6 NW 9 9 5 5 1008.1 - 0.0
25/11:00pm 28.6 30.4 15.5 45 8.1 CALM 0 0 0 0 1008.6 - 0.0
25/10:30pm 28.8 29.0 15.7 45 8.1 ESE 9 13 5 7 1008.4 - 0.0
25/10:00pm 29.0 29.3 15.9 45 8.2 NNE 9 13 5 7 1007.8 - 0.0
25/09:30pm 29.0 29.3 15.9 45 8.2 E 9 11 5 6 1008.2 - 0.0
25/09:00pm 28.8 29.5 16.0 45 8.0 NE 7 9 4 5 1008.5 1007.3 0.0
25/08:30pm 28.7 29.1 16.3 47 7.8 NNE 9 11 5 6 1007.9 - 0.0
25/08:00pm 29.2 30.7 15.7 44 8.4 W 2 7 1 4 1007.1 - 0.0
25/07:30pm 29.1 27.5 16.0 45 8.2 W 19 28 10 15 1007.5 - 0.0
25/07:00pm 31.2 27.0 13.5 34 10.7 W 28 39 15 21 1007.4 - 0.0
25/06:30pm 34.3 34.0 11.4 25 13.6 S 4 6 2 3 1007.3 - 0.0
25/06:00pm 34.7 33.4 11.2 24 14.0 S 9 13 5 7 1006.5 1005.2 0.0
25/05:30pm 35.1 33.7 10.9 23 14.3 SE 9 13 5 7 1006.3 - 0.0
25/05:00pm 35.5 32.6 9.8 21 15.0 SE 15 20 8 11 1006.1 - 0.0
25/04:30pm 35.5 32.8 10.5 22 14.7 ESE 15 20 8 11 1006.4 - 0.0
25/04:00pm 36.2 33.3 11.1 22 14.9 ESE 17 22 9 12 1006.3 - 0.0
25/03:30pm 36.6 35.7 12.7 23 14.6 SW 9 15 5 8 1006.6 - 0.0
25/03:00pm 36.1 35.1 12.3 24 14.4 WNW 9 17 5 9 1007.3 1006.0 0.0
25/02:30pm 36.1 35.9 13.6 26 13.9 W 7 13 4 7 1007.8 - 0.0
25/02:00pm 35.1 34.6 12.7 26 13.6 ESE 7 20 4 11 1008.5 - 0.0
25/01:30pm 34.5 33.7 12.8 27 13.2 NE 9 19 5 10 1009.2 - 0.0
25/01:00pm 34.1 33.5 13.5 28 12.6 ENE 9 17 5 9 1009.8 - 0.0
25/12:30pm 33.6 32.6 14.6 31 11.8 NW 13 22 7 12 1010.5 - 0.0
25/12:00pm 32.9 31.9 14.5 33 11.4 N 13 20 7 11 1010.9 1009.7 0.0
25/11:30am 32.2 30.9 14.8 35 10.8 NNW 15 28 8 15 1011.6 - 0.0
25/11:00am 31.7 30.3 14.4 35 10.6 N 15 26 8 14 1012.1 - 0.0
25/10:30am 30.7 30.3 16.3 42 9.1 N 13 20 7 11 1012.3 - 0.0
25/10:00am 30.1 29.2 15.8 42 8.9 N 15 24 8 13 1012.6 - 0.0
25/09:30am 29.5 28.4 16.3 45 8.3 N 17 28 9 15 1012.7 - 0.0
25/09:00am 28.7 27.3 16.6 48 7.6 N 19 26 10 14 1012.8 1011.6 0.0
25/08:30am 27.9 26.6 16.8 50 7.0 NNE 19 26 10 14 1012.9 - 0.0
25/08:00am 26.8 25.3 16.4 53 6.5 NNE 19 28 10 15 1012.7 - 0.0
25/07:30am 26.2 24.5 16.2 54 6.2 NNE 20 28 11 15 1012.4 - 0.0
25/07:00am 25.3 24.4 15.9 56 5.8 NE 15 22 8 12 1012.1 - 0.0
25/06:30am 24.9 24.8 16.1 58 5.4 NE 11 19 6 10 1011.9 - 0.0
25/06:00am 24.5 24.4 16.0 59 5.2 NE 11 17 6 9 1011.4 1010.1 0.0
25/05:30am 24.8 24.6 15.7 57 5.6 NE 11 19 6 10 1011.0 - 0.0
25/05:00am 25.2 24.7 15.8 56 5.8 NE 13 19 7 10 1010.7 - 0.0
25/04:30am 25.6 25.1 15.9 55 6.0 NE 13 20 7 11 1010.3 - 0.0
25/04:00am 26.0 25.3 16.3 55 6.0 NE 15 28 8 15 1010.0 - 0.0
25/03:30am 26.4 25.2 16.0 52 6.4 NE 17 26 9 14 1009.9 - 0.0
25/03:00am 26.7 26.2 16.0 52 6.6 NE 13 24 7 13 1009.7 1008.5 0.0
25/02:30am 27.2 25.8 15.6 49 7.1 NE 17 24 9 13 1009.5 - 0.0
25/02:00am 27.6 26.0 14.9 45 7.7 NE 17 24 9 13 1009.4 - 0.0
25/01:30am 27.9 25.9 13.8 42 8.5 ENE 17 22 9 12 1009.4 - 0.0
25/01:00am 28.1 26.4 13.6 41 8.7 ENE 15 30 8 16 1009.3 - 0.0
25/12:30am 28.4 27.7 13.1 39 9.1 NE 9 11 5 6 1009.2 - 0.0
25/12:00am 28.3 27.9 13.0 39 9.1 E 7 9 4 5 1009.4 1008.2 0.0
 
Date/Time
EST
Temp
°C
App
Temp
°C
Dew
Point
Rel
Hum
%
Delta-T
°C
Wind Press
QNH
hPa
Press
MSL
hPa
Rain
since 9 am
mm
Dir
 
Spd
km/h
Gust
km/h
Spd
kts
Gust
kts
24/11:30pm 28.9 28.2 13.2 38 9.4 E 9 13 5 7 1009.5 - 0.0
24/11:00pm 29.4 28.9 12.8 36 9.9 ENE 7 9 4 5 1009.4 - 0.0
24/10:30pm 29.8 29.2 12.3 34 10.3 NE 7 13 4 7 1009.4 - 0.0
24/10:00pm 30.4 29.4 12.3 33 10.7 NE 9 11 5 6 1009.6 - 0.0
24/09:30pm 30.2 29.5 12.1 32 10.7 E 7 13 4 7 1009.6 - 0.0
24/09:00pm 30.8 30.3 12.7 33 10.8 E 7 7 4 4 1009.5 1008.3 0.0
24/08:30pm 31.5 30.5 12.3 31 11.4 E 9 11 5 6 1009.4 - 0.0
24/08:00pm 32.2 31.2 12.4 30 11.8 ESE 9 13 5 7 1009.1 - 0.0
24/07:30pm 32.5 31.6 12.7 30 11.9 ESE 9 11 5 6 1008.9 - 0.0
24/07:00pm 33.7 32.5 12.7 28 12.7 ESE 11 15 6 8 1008.5 - 0.0
24/06:30pm 34.9 33.0 11.9 24 13.8 ESE 13 19 7 10 1008.2 - 0.0
24/06:00pm 35.7 32.9 11.4 23 14.5 ESE 17 20 9 11 1008.0 1006.7 0.0

Other Formats:

Comma delimited format used in spreadsheet applications
http://www.bom.gov.au/fwo/IDQ60801/IDQ60801.94517.axf

JavaScript Object Notation format (JSON) in row-major order
http://www.bom.gov.au/fwo/IDQ60801/IDQ60801.94517.json